createdAt,value
2018-04-23T00:00:46.959Z,83.18
2018-04-23T00:01:46.961Z,84.04
2018-04-23T00:02:46.965Z,83.85
2018-04-23T00:03:46.972Z,83.56
2018-04-23T00:04:46.969Z,83.56
2018-04-23T00:05:46.970Z,83.56
2018-04-23T00:06:47.255Z,83.65
2018-04-23T00:07:46.984Z,83.94
2018-04-23T00:08:46.978Z,84.14
2018-04-23T00:09:46.982Z,84.33
2018-04-23T00:10:46.984Z,84.14
2018-04-23T00:11:46.986Z,84.33
2018-04-23T00:12:47.036Z,84.14
2018-04-23T00:13:46.990Z,84.14
2018-04-23T00:14:46.993Z,84.23
2018-04-23T00:15:47.013Z,84.14
2018-04-23T00:16:46.998Z,84.23
2018-04-23T00:17:46.999Z,84.14
2018-04-23T00:18:47.396Z,83.65
2018-04-23T00:19:47.006Z,84.14
2018-04-23T00:20:47.712Z,83.75
2018-04-23T00:21:47.009Z,84.42
2018-04-23T00:22:47.015Z,84.04
2018-04-23T00:23:47.017Z,83.94
2018-04-23T00:24:47.043Z,84.14
2018-04-23T00:25:47.018Z,84.04
2018-04-23T00:26:47.021Z,84.33
2018-04-23T00:27:47.025Z,84.71
2018-04-23T00:28:47.025Z,84.23
2018-04-23T00:29:47.029Z,84.42
2018-04-23T00:30:47.030Z,84.38
2018-04-23T00:31:47.036Z,84.67
2018-04-23T00:32:47.035Z,84.71
2018-04-23T00:33:47.036Z,85.05
2018-04-23T00:34:47.040Z,84.81
2018-04-23T00:35:47.041Z,85.05
2018-04-23T00:36:47.044Z,85.05
2018-04-23T00:37:47.713Z,85.44
2018-04-23T00:38:47.049Z,85.25
2018-04-23T00:39:47.051Z,85.15
2018-04-23T00:40:47.054Z,85.72
2018-04-23T00:41:47.054Z,85.15
2018-04-23T00:42:47.060Z,85.25
2018-04-23T00:43:47.060Z,85.82
2018-04-23T00:44:47.081Z,85.53
2018-04-23T00:45:47.066Z,85.82
2018-04-23T00:46:47.068Z,85.72
2018-04-23T00:47:47.070Z,85.82
2018-04-23T00:48:47.070Z,85.63
2018-04-23T00:49:47.075Z,85.78
2018-04-23T00:50:47.075Z,86.01
2018-04-23T00:51:47.079Z,86.25
2018-04-23T00:52:47.078Z,86.54
2018-04-23T00:53:47.081Z,86.35
2018-04-23T00:54:47.082Z,86.54
2018-04-23T00:55:47.083Z,86.45
2018-04-23T00:56:47.086Z,86.64
2018-04-23T00:57:47.087Z,86.64
2018-04-23T00:58:47.094Z,86.54
2018-04-23T00:59:47.095Z,86.54
2018-04-23T01:00:47.094Z,86.16
2018-04-23T01:01:47.096Z,86.54
2018-04-23T01:02:47.098Z,86.45
2018-04-23T01:03:47.100Z,86.35
2018-04-23T01:04:47.106Z,86.64
2018-04-23T01:05:47.103Z,86.45
2018-04-23T01:06:47.106Z,86.35
2018-04-23T01:07:47.108Z,86.45
2018-04-23T01:08:48.095Z,86.54
2018-04-23T01:09:47.112Z,86.35
2018-04-23T01:10:47.114Z,87.12
2018-04-23T01:11:47.117Z,87.31
2018-04-23T01:12:47.118Z,87.50
2018-04-23T01:13:47.120Z,87.02
2018-04-23T01:14:47.122Z,87.88
2018-04-23T01:15:47.127Z,87.98
2018-04-23T01:16:47.126Z,87.65
2018-04-23T01:17:47.127Z,88.32
2018-04-23T01:18:47.128Z,88.42
2018-04-23T01:19:47.131Z,88.13
2018-04-23T01:20:47.136Z,88.32
2018-04-23T01:21:47.133Z,88.32
2018-04-23T01:22:47.139Z,88.32
2018-04-23T01:23:47.138Z,88.13
2018-04-23T01:24:47.141Z,88.32
2018-04-23T01:25:47.141Z,88.32
2018-04-23T01:26:47.143Z,88.32
2018-04-23T01:27:47.146Z,88.32
2018-04-23T01:28:47.147Z,88.61
2018-04-23T01:29:47.148Z,88.70
2018-04-23T01:30:47.149Z,88.80
2018-04-23T01:31:47.156Z,88.32
2018-04-23T01:32:47.154Z,88.80
2018-04-23T01:33:47.156Z,88.13
2018-04-23T01:34:47.158Z,88.32
2018-04-23T01:35:47.158Z,88.32
2018-04-23T01:36:47.161Z,88.80
2018-04-23T01:37:47.165Z,88.61
2018-04-23T01:38:47.163Z,88.51
2018-04-23T01:39:47.165Z,88.70
2018-04-23T01:40:47.166Z,88.42
2018-04-23T01:41:47.168Z,89.09
2018-04-23T01:42:47.173Z,88.99
2018-04-23T01:43:47.173Z,89.28
2018-04-23T01:44:47.174Z,89.18
2018-04-23T01:45:47.173Z,88.99
2018-04-23T01:46:47.176Z,88.99
2018-04-23T01:47:47.178Z,89.18
2018-04-23T01:48:47.179Z,89.57
2018-04-23T01:49:47.179Z,89.28
2018-04-23T01:50:47.185Z,89.18
2018-04-23T01:51:47.184Z,89.47
2018-04-23T01:52:47.184Z,89.52
2018-04-23T01:53:47.185Z,89.47
2018-04-23T01:54:47.187Z,89.23
2018-04-23T01:55:47.190Z,89.90
2018-04-23T01:56:47.191Z,89.62
2018-04-23T01:57:47.193Z,89.43
2018-04-23T01:58:47.194Z,89.90
2018-04-23T01:59:47.195Z,89.62
2018-04-23T02:00:47.199Z,89.72
2018-04-23T02:01:47.197Z,89.62
2018-04-23T02:02:47.202Z,90.09
2018-04-23T02:03:47.202Z,89.52
2018-04-23T02:04:47.202Z,90.00
2018-04-23T02:05:47.203Z,89.62
2018-04-23T02:06:47.205Z,89.62
2018-04-23T02:07:47.206Z,90.19
2018-04-23T02:08:47.214Z,89.52
2018-04-23T02:09:47.208Z,89.62
2018-04-23T02:10:47.211Z,89.81
2018-04-23T02:11:47.211Z,89.72
2018-04-23T02:12:47.214Z,89.72
2018-04-23T02:13:47.213Z,89.72
2018-04-23T02:14:47.216Z,89.81
2018-04-23T02:15:47.218Z,89.72
2018-04-23T02:16:47.217Z,89.72
2018-04-23T02:17:47.218Z,89.23
2018-04-23T02:18:47.221Z,89.72
2018-04-23T02:19:47.227Z,89.81
2018-04-23T02:20:47.222Z,90.09
2018-04-23T02:21:47.229Z,90.09
2018-04-23T02:22:47.226Z,89.81
2018-04-23T02:23:47.265Z,90.09
2018-04-23T02:24:47.227Z,90.29
2018-04-23T02:25:47.230Z,89.72
2018-04-23T02:26:47.230Z,89.90
2018-04-23T02:27:47.231Z,90.00
2018-04-23T02:28:47.235Z,90.19
2018-04-23T02:29:47.237Z,90.29
2018-04-23T02:30:47.235Z,90.29
2018-04-23T02:31:47.240Z,90.48
2018-04-23T02:32:47.241Z,90.09
2018-04-23T02:33:47.241Z,90.48
2018-04-23T02:34:47.241Z,90.09
2018-04-23T02:35:47.241Z,90.09
2018-04-23T02:36:47.253Z,90.29
2018-04-23T02:37:47.246Z,90.48
2018-04-23T02:38:47.244Z,90.67
2018-04-23T02:39:47.246Z,90.29
2018-04-23T02:40:47.251Z,90.67
2018-04-23T02:41:47.248Z,90.48
2018-04-23T02:42:47.250Z,89.72
2018-04-23T02:43:47.262Z,90.29
2018-04-23T02:44:47.253Z,90.48
2018-04-23T02:45:47.252Z,90.29
2018-04-23T02:46:47.255Z,90.29
2018-04-23T02:47:47.255Z,90.29
2018-04-23T02:48:47.256Z,90.39
2018-04-23T02:49:47.256Z,90.29
2018-04-23T02:50:47.260Z,90.29
2018-04-23T02:51:47.260Z,90.29
2018-04-23T02:52:47.263Z,90.39
2018-04-23T02:53:47.260Z,90.48
2018-04-23T02:54:47.263Z,90.39
2018-04-23T02:55:47.262Z,90.48
2018-04-23T02:56:47.264Z,90.15
2018-04-23T02:57:47.265Z,90.63
2018-04-23T02:58:47.277Z,90.77
2018-04-23T02:59:47.269Z,90.67
2018-04-23T03:00:47.288Z,89.86
2018-04-23T03:01:47.270Z,90.48
2018-04-23T03:02:47.270Z,90.67
2018-04-23T03:03:47.273Z,90.58
2018-04-23T03:04:47.278Z,90.63
2018-04-23T03:05:47.278Z,90.67
2018-04-23T03:06:47.274Z,90.63
2018-04-23T03:07:47.275Z,90.53
2018-04-23T03:08:47.277Z,90.48
2018-04-23T03:09:47.278Z,90.34
2018-04-23T03:10:47.278Z,90.15
2018-04-23T03:11:47.632Z,90.53
2018-04-23T03:12:47.282Z,90.53
2018-04-23T03:13:47.281Z,91.01
2018-04-23T03:14:47.291Z,90.82
2018-04-23T03:15:47.282Z,91.01
2018-04-23T03:16:47.286Z,91.01
2018-04-23T03:17:47.284Z,90.82
2018-04-23T03:18:47.285Z,91.49
2018-04-23T03:19:47.288Z,90.53
2018-04-23T03:20:47.287Z,91.20
2018-04-23T03:21:47.287Z,91.68
2018-04-23T03:22:47.289Z,91.49
2018-04-23T03:23:47.291Z,91.49
2018-04-23T03:24:47.292Z,91.30
2018-04-23T03:25:47.292Z,91.30
2018-04-23T03:26:47.294Z,91.58
2018-04-23T03:27:47.295Z,90.63
2018-04-23T03:28:47.298Z,90.72
2018-04-23T03:29:47.299Z,90.91
2018-04-23T03:30:47.303Z,90.91
2018-04-23T03:31:47.298Z,90.82
2018-04-23T03:32:47.303Z,91.39
2018-04-23T03:33:47.298Z,90.82
2018-04-23T03:34:47.299Z,90.24
2018-04-23T03:35:47.299Z,90.91
2018-04-23T03:36:47.301Z,90.82
2018-04-23T03:37:47.300Z,91.30
2018-04-23T03:38:47.303Z,91.20
2018-04-23T03:39:47.303Z,90.82
2018-04-23T03:40:47.309Z,90.67
2018-04-23T03:41:47.303Z,90.63
2018-04-23T03:42:48.010Z,90.39
2018-04-23T03:43:47.307Z,90.39
2018-04-23T03:44:47.308Z,90.39
2018-04-23T03:45:47.309Z,90.09
2018-04-23T03:46:47.308Z,90.29
2018-04-23T03:47:47.309Z,89.58
2018-04-23T03:48:47.337Z,90.29
2018-04-23T03:49:47.312Z,90.00
2018-04-23T03:50:47.312Z,90.19
2018-04-23T03:51:47.313Z,89.81
2018-04-23T03:52:47.317Z,89.90
2018-04-23T03:53:47.314Z,89.62
2018-04-23T03:54:47.315Z,89.62
2018-04-23T03:55:47.321Z,89.90
2018-04-23T03:56:47.524Z,89.90
2018-04-23T03:57:47.386Z,89.52
2018-04-23T03:58:47.321Z,89.43
2018-04-23T03:59:47.321Z,89.04
2018-04-23T04:00:47.324Z,89.14
2018-04-23T04:01:47.324Z,89.43
2018-04-23T04:02:47.322Z,89.14
2018-04-23T04:03:47.325Z,89.14
2018-04-23T04:04:47.326Z,89.43
2018-04-23T04:05:47.326Z,89.72
2018-04-23T04:06:47.327Z,89.62
2018-04-23T04:07:47.330Z,89.52
2018-04-23T04:08:47.330Z,89.14
2018-04-23T04:09:47.329Z,89.04
2018-04-23T04:10:47.330Z,89.72
2018-04-23T04:11:47.332Z,89.43
2018-04-23T04:12:47.333Z,89.33
2018-04-23T04:13:47.333Z,89.43
2018-04-23T04:14:47.334Z,89.43
2018-04-23T04:15:47.341Z,89.33
2018-04-23T04:16:47.355Z,89.52
2018-04-23T04:17:47.337Z,89.43
2018-04-23T04:18:47.340Z,89.52
2018-04-23T04:19:47.340Z,89.04
2018-04-23T04:20:47.343Z,89.14
2018-04-23T04:21:47.341Z,89.23
2018-04-23T04:22:47.342Z,88.76
2018-04-23T04:23:47.343Z,88.95
2018-04-23T04:24:47.364Z,88.66
2018-04-23T04:25:47.345Z,88.47
2018-04-23T04:26:47.347Z,88.28
2018-04-23T04:27:47.346Z,88.09
2018-04-23T04:28:47.349Z,88.09
2018-04-23T04:29:47.348Z,88.66
2018-04-23T04:30:47.350Z,88.76
2018-04-23T04:31:47.353Z,88.09
2018-04-23T04:32:47.353Z,88.28
2018-04-23T04:33:47.353Z,88.28
2018-04-23T04:34:47.354Z,88.28
2018-04-23T04:35:47.356Z,88.28
2018-04-23T04:36:47.360Z,88.56
2018-04-23T04:37:47.357Z,87.80
2018-04-23T04:38:47.358Z,87.80
2018-04-23T04:39:47.360Z,87.90
2018-04-23T04:40:47.363Z,87.70
2018-04-23T04:41:47.360Z,87.70
2018-04-23T04:42:47.367Z,87.80
2018-04-23T04:43:47.363Z,87.90
2018-04-23T04:44:47.366Z,87.61
2018-04-23T04:45:47.368Z,87.61
2018-04-23T04:46:47.366Z,87.70
2018-04-23T04:47:47.367Z,87.70
2018-04-23T04:48:47.369Z,87.13
2018-04-23T04:49:47.371Z,86.98
2018-04-23T04:50:47.373Z,87.13
2018-04-23T04:51:47.372Z,87.08
2018-04-23T04:52:47.376Z,86.88
2018-04-23T04:53:47.374Z,87.27
2018-04-23T04:54:47.375Z,87.46
2018-04-23T04:55:47.378Z,86.98
2018-04-23T04:56:47.378Z,86.50
2018-04-23T04:57:47.377Z,86.41
2018-04-23T04:58:47.380Z,86.41
2018-04-23T04:59:47.380Z,86.31
2018-04-23T05:00:47.384Z,86.12
2018-04-23T05:01:47.383Z,86.12
2018-04-23T05:02:47.384Z,86.12
2018-04-23T05:03:47.387Z,86.41
2018-04-23T05:04:47.388Z,86.50
2018-04-23T05:05:47.388Z,86.50
2018-04-23T05:06:47.390Z,86.31
2018-04-23T05:07:47.391Z,86.21
2018-04-23T05:08:47.395Z,86.31
2018-04-23T05:09:47.394Z,85.54
2018-04-23T05:10:47.394Z,85.54
2018-04-23T05:11:47.411Z,85.25
2018-04-23T05:12:47.398Z,85.16
2018-04-23T05:13:47.399Z,85.54
2018-04-23T05:14:47.405Z,84.97
2018-04-23T05:15:47.402Z,85.21
2018-04-23T05:16:47.403Z,85.06
2018-04-23T05:17:47.405Z,84.78
2018-04-23T05:18:47.406Z,84.44
2018-04-23T05:19:47.409Z,84.34
2018-04-23T05:20:47.411Z,83.86
2018-04-23T05:21:47.411Z,84.05
2018-04-23T05:22:47.414Z,84.25
2018-04-23T05:23:47.457Z,84.05
2018-04-23T05:24:47.415Z,84.15
2018-04-23T05:25:47.421Z,83.95
2018-04-23T05:26:47.418Z,83.67
2018-04-23T05:27:47.423Z,83.42
2018-04-23T05:28:47.423Z,82.37
2018-04-23T05:29:47.423Z,81.89
2018-04-23T05:30:47.426Z,81.22
2018-04-23T05:31:47.431Z,80.87
2018-04-23T05:32:47.446Z,80.97
2018-04-23T05:33:47.435Z,80.87
2018-04-23T05:34:47.433Z,81.54
2018-04-23T05:35:47.435Z,81.64
2018-04-23T05:36:47.437Z,81.41
2018-04-23T05:37:47.440Z,81.12
2018-04-23T05:38:47.453Z,80.93
2018-04-23T05:39:47.815Z,81.60
2018-04-23T05:40:47.527Z,82.46
2018-04-23T05:41:47.447Z,81.41
2018-04-23T05:42:47.449Z,82.08
2018-04-23T05:43:47.450Z,82.18
2018-04-23T05:44:47.454Z,82.75
2018-04-23T05:45:47.575Z,83.42
2018-04-23T05:46:47.458Z,84.28
2018-04-23T05:47:47.459Z,84.77
2018-04-23T05:48:47.461Z,85.63
2018-04-23T05:49:47.463Z,86.58
2018-04-23T05:50:47.465Z,87.35
2018-04-23T05:51:47.467Z,87.16
2018-04-23T05:52:47.472Z,86.68
2018-04-23T05:53:47.472Z,86.68
2018-04-23T05:54:47.474Z,86.40
2018-04-23T05:55:47.476Z,87.26
2018-04-23T05:56:47.478Z,87.74
2018-04-23T05:57:47.481Z,86.30
2018-04-23T05:58:47.482Z,86.40
2018-04-23T05:59:47.483Z,87.26
2018-04-23T06:00:47.486Z,86.97
2018-04-23T06:01:47.492Z,86.97
2018-04-23T06:02:47.492Z,86.78
2018-04-23T06:03:47.490Z,87.16
2018-04-23T06:04:47.493Z,88.51
2018-04-23T06:05:47.493Z,88.31
2018-04-23T06:06:47.496Z,88.22
2018-04-23T06:07:47.499Z,87.45
2018-04-23T06:08:47.501Z,88.51
2018-04-23T06:09:47.509Z,88.60
2018-04-23T06:10:47.507Z,87.74
2018-04-23T06:11:47.508Z,87.78
2018-04-23T06:12:47.510Z,86.97
2018-04-23T06:13:47.511Z,87.93
2018-04-23T06:14:47.518Z,87.55
2018-04-23T06:15:47.545Z,87.35
2018-04-23T06:16:47.953Z,87.49
2018-04-23T06:17:47.518Z,87.30
2018-04-23T06:18:47.525Z,86.72
2018-04-23T06:19:47.545Z,86.72
2018-04-23T06:20:47.527Z,86.92
2018-04-23T06:21:47.526Z,86.54
2018-04-23T06:22:47.532Z,86.58
2018-04-23T06:23:47.532Z,87.55
2018-04-23T06:24:47.539Z,87.64
2018-04-23T06:25:47.536Z,87.55
2018-04-23T06:26:47.538Z,87.01
2018-04-23T06:27:47.541Z,87.16
2018-04-23T06:28:47.542Z,87.40
2018-04-23T06:29:47.545Z,87.49
2018-04-23T06:30:47.552Z,86.44
2018-04-23T06:31:47.549Z,87.45
2018-04-23T06:32:47.554Z,88.17
2018-04-23T06:33:47.554Z,87.21
2018-04-23T06:34:47.556Z,86.40
2018-04-23T06:35:47.559Z,86.68
2018-04-23T06:36:47.563Z,86.63
2018-04-23T06:37:47.565Z,87.07
2018-04-23T06:38:47.581Z,87.16
2018-04-23T06:39:47.567Z,86.58
2018-04-23T06:40:47.576Z,86.25
2018-04-23T06:41:47.575Z,86.44
2018-04-23T06:42:47.586Z,86.34
2018-04-23T06:43:47.582Z,86.44
2018-04-23T06:44:47.587Z,86.01
2018-04-23T06:45:47.582Z,86.15
2018-04-23T06:46:47.583Z,86.68
2018-04-23T06:47:48.533Z,86.34
2018-04-23T06:48:47.588Z,86.72
2018-04-23T06:49:47.589Z,86.40
2018-04-23T06:50:47.602Z,86.54
2018-04-23T06:51:47.612Z,86.72
2018-04-23T06:52:47.597Z,87.11
2018-04-23T06:53:47.598Z,86.63
2018-04-23T06:54:47.637Z,86.34
2018-04-23T06:55:47.603Z,86.34
2018-04-23T06:56:47.608Z,86.15
2018-04-23T06:57:47.608Z,85.77
2018-04-23T06:58:47.633Z,85.86
2018-04-23T06:59:47.614Z,86.10
2018-04-23T07:00:47.617Z,85.04
2018-04-23T07:01:47.696Z,85.14
2018-04-23T07:02:47.624Z,85.14
2018-04-23T07:03:47.624Z,85.14
2018-04-23T07:04:47.676Z,84.95
2018-04-23T07:05:47.633Z,84.75
2018-04-23T07:06:47.636Z,84.56
2018-04-23T07:07:47.643Z,84.18
2018-04-23T07:08:47.640Z,84.85
2018-04-23T07:09:47.640Z,83.98
2018-04-23T07:10:47.645Z,84.56
2018-04-23T07:11:47.646Z,85.08
2018-04-23T07:12:47.649Z,85.08
2018-04-23T07:13:47.663Z,85.28
2018-04-23T07:14:47.654Z,85.37
2018-04-23T07:15:47.659Z,84.60
2018-04-23T07:16:47.661Z,84.03
2018-04-23T07:17:47.666Z,84.22
2018-04-23T07:18:47.664Z,84.41
2018-04-23T07:19:47.670Z,84.31
2018-04-23T07:20:47.671Z,84.22
2018-04-23T07:21:47.676Z,83.84
2018-04-23T07:22:47.677Z,82.97
2018-04-23T07:23:47.686Z,83.26
2018-04-23T07:24:47.690Z,83.26
2018-04-23T07:25:47.687Z,83.07
2018-04-23T07:26:47.688Z,83.26
2018-04-23T07:27:47.693Z,83.54
2018-04-23T07:28:47.705Z,82.97
2018-04-23T07:29:47.802Z,83.26
2018-04-23T07:30:47.703Z,83.36
2018-04-23T07:31:47.716Z,83.36
2018-04-23T07:32:47.709Z,83.36
2018-04-23T07:33:47.711Z,83.40
2018-04-23T07:34:47.729Z,83.16
2018-04-23T07:35:47.719Z,82.78
2018-04-23T07:36:47.721Z,82.78
2018-04-23T07:37:47.726Z,83.26
2018-04-23T07:38:47.735Z,82.97
2018-04-23T07:39:47.742Z,83.07
2018-04-23T07:40:47.785Z,83.07
2018-04-23T07:41:47.738Z,83.20
2018-04-23T07:42:47.746Z,83.30
2018-04-23T07:43:47.748Z,83.78
2018-04-23T07:44:47.747Z,83.40
2018-04-23T07:45:47.749Z,83.69
2018-04-23T07:46:47.760Z,83.78
2018-04-23T07:47:47.760Z,84.17
2018-04-23T07:48:47.759Z,82.73
2018-04-23T07:49:47.762Z,82.82
2018-04-23T07:50:47.769Z,81.96
2018-04-23T07:51:47.820Z,81.76
2018-04-23T07:52:47.773Z,81.96
2018-04-23T07:53:47.778Z,82.15
2018-04-23T07:54:47.791Z,82.05
2018-04-23T07:55:47.782Z,82.15
2018-04-23T07:56:47.785Z,81.86
2018-04-23T07:57:47.829Z,82.43
2018-04-23T07:58:47.793Z,82.05
2018-04-23T07:59:47.803Z,82.82
2018-04-23T08:00:47.799Z,82.96
2018-04-23T08:01:47.799Z,82.43
2018-04-23T08:02:47.807Z,82.05
2018-04-23T08:03:47.821Z,81.96
2018-04-23T08:04:47.814Z,81.67
2018-04-23T08:05:47.819Z,81.61
2018-04-23T08:06:47.822Z,81.19
2018-04-23T08:07:47.819Z,81.76
2018-04-23T08:08:47.833Z,81.38
2018-04-23T08:09:47.997Z,81.52
2018-04-23T08:10:47.833Z,80.84
2018-04-23T08:11:47.843Z,81.23
2018-04-23T08:12:47.842Z,80.65
2018-04-23T08:13:47.839Z,80.36
2018-04-23T08:14:47.845Z,80.55
2018-04-23T08:15:47.848Z,80.75
2018-04-23T08:16:47.852Z,80.46
2018-04-23T08:17:47.853Z,81.04
2018-04-23T08:18:47.856Z,80.46
2018-04-23T08:19:47.906Z,80.75
2018-04-23T08:20:47.864Z,80.84
2018-04-23T08:21:47.870Z,80.55
2018-04-23T08:22:47.874Z,80.07
2018-04-23T08:23:47.874Z,79.30
2018-04-23T08:24:47.879Z,79.21
2018-04-23T08:25:47.886Z,79.02
2018-04-23T08:26:47.885Z,79.21
2018-04-23T08:27:47.908Z,77.58
2018-04-23T08:28:47.894Z,77.29
2018-04-23T08:29:47.895Z,77.48
2018-04-23T08:30:47.919Z,77.76
2018-04-23T08:31:47.931Z,77.04
2018-04-23T08:32:48.681Z,76.94
2018-04-23T08:33:47.908Z,77.51
2018-04-23T08:34:47.912Z,76.94
2018-04-23T08:35:47.916Z,77.23
2018-04-23T08:36:47.923Z,77.04
2018-04-23T08:37:47.923Z,77.42
2018-04-23T08:38:47.927Z,77.13
2018-04-23T08:39:47.931Z,77.13
2018-04-23T08:40:47.951Z,77.42
2018-04-23T08:41:47.953Z,77.23
2018-04-23T08:42:47.948Z,77.13
2018-04-23T08:43:47.999Z,77.13
2018-04-23T08:44:47.958Z,76.46
2018-04-23T08:45:47.955Z,76.36
2018-04-23T08:46:48.719Z,77.13
2018-04-23T08:47:47.962Z,78.09
2018-04-23T08:48:47.966Z,78.09
2018-04-23T08:49:47.970Z,78.00
2018-04-23T08:50:48.070Z,78.13
2018-04-23T08:51:47.978Z,77.84
2018-04-23T08:52:47.982Z,77.94
2018-04-23T08:53:47.990Z,77.84
2018-04-23T08:54:47.994Z,77.26
2018-04-23T08:55:48.015Z,76.98
2018-04-23T08:56:47.996Z,76.69
2018-04-23T08:57:48.397Z,77.26
2018-04-23T08:58:48.004Z,76.98
2018-04-23T08:59:48.009Z,76.88
2018-04-23T09:00:48.411Z,76.50
2018-04-23T09:01:48.017Z,76.11
2018-04-23T09:02:48.047Z,75.82
2018-04-23T09:03:48.035Z,75.24
2018-04-23T09:04:48.030Z,74.19
2018-04-23T09:05:48.037Z,73.99
2018-04-23T09:06:48.039Z,74.48
2018-04-23T09:07:48.040Z,75.34
2018-04-23T09:08:48.060Z,75.63
2018-04-23T09:09:48.060Z,75.63
2018-04-23T09:10:48.054Z,74.48
2018-04-23T09:11:48.076Z,74.48
2018-04-23T09:12:48.065Z,74.67
2018-04-23T09:13:48.064Z,75.24
2018-04-23T09:14:48.069Z,74.86
2018-04-23T09:15:48.073Z,74.38
2018-04-23T09:16:48.078Z,75.34
2018-04-23T09:17:48.125Z,74.90
2018-04-23T09:18:48.085Z,74.61
2018-04-23T09:19:49.594Z,74.80
2018-04-23T09:20:48.094Z,74.90
2018-04-23T09:21:48.530Z,74.80
2018-04-23T09:22:48.102Z,75.19
2018-04-23T09:23:48.108Z,75.09
2018-04-23T09:24:48.151Z,74.61
2018-04-23T09:25:48.118Z,74.90
2018-04-23T09:26:48.120Z,75.42
2018-04-23T09:27:48.140Z,74.74
2018-04-23T09:28:48.135Z,75.03
2018-04-23T09:29:48.324Z,74.55
2018-04-23T09:30:48.153Z,74.65
2018-04-23T09:31:48.141Z,74.36
2018-04-23T09:32:48.149Z,73.88
2018-04-23T09:33:48.165Z,73.88
2018-04-23T09:34:48.159Z,73.72
2018-04-23T09:35:48.164Z,73.24
2018-04-23T09:36:48.165Z,73.14
2018-04-23T09:37:48.168Z,73.14
2018-04-23T09:38:48.716Z,73.14
2018-04-23T09:39:48.184Z,73.14
2018-04-23T09:40:48.179Z,72.85
2018-04-23T09:41:48.185Z,72.27
2018-04-23T09:42:48.190Z,71.25
2018-04-23T09:43:48.200Z,71.83
2018-04-23T09:44:48.198Z,72.02
2018-04-23T09:45:48.205Z,70.48
2018-04-23T09:46:48.207Z,70.86
2018-04-23T09:47:48.212Z,70.48
2018-04-23T09:48:48.224Z,70.00
2018-04-23T09:49:48.251Z,71.06
2018-04-23T09:50:48.227Z,70.28
2018-04-23T09:51:48.249Z,69.87
2018-04-23T09:52:48.894Z,69.38
2018-04-23T09:53:48.245Z,68.99
2018-04-23T09:54:48.247Z,68.90
2018-04-23T09:55:48.252Z,69.09
2018-04-23T09:56:48.263Z,69.19
2018-04-23T09:57:49.614Z,68.45
2018-04-23T09:58:48.266Z,68.26
2018-04-23T09:59:48.269Z,68.16
2018-04-23T10:00:48.335Z,68.01
2018-04-23T10:01:48.279Z,67.78
2018-04-23T10:02:48.286Z,67.23
2018-04-23T10:03:48.294Z,66.85
2018-04-23T10:04:48.294Z,66.56
2018-04-23T10:05:48.299Z,66.69
2018-04-23T10:06:48.305Z,66.20
2018-04-23T10:07:48.382Z,65.82
2018-04-23T10:08:48.318Z,65.34
2018-04-23T10:09:48.327Z,66.01
2018-04-23T10:10:48.332Z,65.17
2018-04-23T10:11:48.690Z,64.98
2018-04-23T10:12:48.343Z,64.89
2018-04-23T10:13:48.338Z,64.11
2018-04-23T10:14:48.345Z,64.11
2018-04-23T10:15:48.350Z,63.05
2018-04-23T10:16:48.356Z,63.15
2018-04-23T10:17:48.362Z,62.86
2018-04-23T10:18:48.389Z,62.95
2018-04-23T10:19:48.373Z,63.05
2018-04-23T10:20:48.379Z,63.43
2018-04-23T10:21:48.433Z,63.43
2018-04-23T10:22:48.389Z,63.34
2018-04-23T10:23:49.351Z,63.34
2018-04-23T10:24:48.407Z,62.37
2018-04-23T10:25:48.422Z,62.76
2018-04-23T10:26:48.411Z,61.92
2018-04-23T10:27:48.419Z,61.70
2018-04-23T10:28:48.426Z,61.89
2018-04-23T10:29:48.431Z,61.15
2018-04-23T10:30:48.437Z,61.25
2018-04-23T10:31:48.444Z,60.67
2018-04-23T10:32:48.448Z,60.38
2018-04-23T10:33:48.450Z,60.09
2018-04-23T10:34:48.465Z,59.53
2018-04-23T10:35:48.465Z,59.25
2018-04-23T10:36:48.472Z,59.05
2018-04-23T10:37:48.479Z,57.70
2018-04-23T10:38:48.481Z,58.12
2018-04-23T10:39:48.492Z,57.63
2018-04-23T10:40:48.495Z,57.44
2018-04-23T10:41:48.497Z,57.63
2018-04-23T10:42:48.503Z,55.89
2018-04-23T10:43:48.510Z,55.89
2018-04-23T10:44:48.547Z,55.51
2018-04-23T10:45:48.571Z,55.11
2018-04-23T10:46:48.640Z,55.99
2018-04-23T10:47:48.535Z,56.28
2018-04-23T10:48:48.542Z,56.67
2018-04-23T10:49:48.549Z,56.37
2018-04-23T10:50:48.559Z,56.28
2018-04-23T10:51:49.513Z,55.99
2018-04-23T10:52:48.573Z,55.79
2018-04-23T10:53:48.767Z,55.31
2018-04-23T10:54:48.639Z,55.11
2018-04-23T10:55:48.601Z,55.41
2018-04-23T10:56:48.599Z,54.95
2018-04-23T10:57:48.881Z,54.66
2018-04-23T10:58:48.604Z,55.05
2018-04-23T10:59:48.639Z,54.66
2018-04-23T11:00:48.616Z,54.47
2018-04-23T11:01:48.646Z,54.37
2018-04-23T11:02:48.628Z,54.75
2018-04-23T11:03:48.634Z,54.27
2018-04-23T11:04:48.641Z,53.69
2018-04-23T11:05:48.651Z,54.17
2018-04-23T11:06:48.656Z,54.17
2018-04-23T11:07:48.660Z,54.17
2018-04-23T11:08:48.671Z,54.08
2018-04-23T11:09:48.672Z,54.25
2018-04-23T11:10:48.677Z,55.31
2018-04-23T11:11:48.690Z,55.38
2018-04-23T11:12:48.694Z,55.47
2018-04-23T11:13:48.699Z,55.77
2018-04-23T11:14:48.702Z,55.74
2018-04-23T11:15:48.763Z,56.03
2018-04-23T11:16:48.720Z,56.13
2018-04-23T11:17:48.727Z,57.09
2018-04-23T11:18:48.730Z,57.38
2018-04-23T11:19:48.733Z,57.87
2018-04-23T11:20:49.671Z,58.35
2018-04-23T11:21:48.747Z,58.83
2018-04-23T11:22:48.756Z,59.31
2018-04-23T11:23:48.765Z,59.89
2018-04-23T11:24:48.811Z,59.70
2018-04-23T11:25:48.771Z,59.02
2018-04-23T11:26:48.778Z,57.96
2018-04-23T11:27:48.786Z,57.89
2018-04-23T11:28:48.790Z,58.37
2018-04-23T11:29:48.794Z,58.09
2018-04-23T11:30:48.804Z,57.79
2018-04-23T11:31:48.812Z,58.09
2018-04-23T11:32:48.865Z,58.18
2018-04-23T11:33:48.818Z,57.41
2018-04-23T11:34:48.829Z,57.41
2018-04-23T11:35:48.831Z,57.54
2018-04-23T11:36:48.831Z,56.67
2018-04-23T11:37:48.853Z,56.47
2018-04-23T11:38:48.867Z,56.09
2018-04-23T11:39:48.848Z,56.47
2018-04-23T11:40:48.856Z,56.28
2018-04-23T11:41:48.922Z,56.28
2018-04-23T11:42:48.868Z,56.50
2018-04-23T11:43:48.877Z,55.73
2018-04-23T11:44:48.880Z,55.34
2018-04-23T11:45:48.885Z,55.73
2018-04-23T11:46:48.927Z,55.53
2018-04-23T11:47:48.899Z,55.63
2018-04-23T11:48:48.906Z,54.85
2018-04-23T11:49:48.915Z,54.66
2018-04-23T11:50:48.923Z,55.05
2018-04-23T11:51:48.928Z,54.59
2018-04-23T11:52:48.935Z,53.99
2018-04-23T11:53:48.936Z,54.47
2018-04-23T11:54:48.949Z,54.30
2018-04-23T11:55:48.948Z,53.72
2018-04-23T11:56:48.981Z,54.01
2018-04-23T11:57:48.986Z,54.01
2018-04-23T11:58:48.970Z,54.01
2018-04-23T11:59:48.974Z,53.81
2018-04-23T12:00:48.984Z,53.72
2018-04-23T12:01:48.988Z,53.33
2018-04-23T12:02:48.996Z,52.56
2018-04-23T12:03:49.035Z,53.59
2018-04-23T12:04:49.007Z,53.11
2018-04-23T12:05:49.013Z,52.73
2018-04-23T12:06:49.020Z,52.24
2018-04-23T12:07:49.030Z,52.82
2018-04-23T12:08:49.052Z,52.63
2018-04-23T12:09:49.038Z,52.63
2018-04-23T12:10:49.048Z,52.53
2018-04-23T12:11:49.061Z,53.02
2018-04-23T12:12:49.060Z,52.63
2018-04-23T12:13:49.088Z,52.44
2018-04-23T12:14:49.073Z,52.82
2018-04-23T12:15:49.078Z,53.50
2018-04-23T12:16:49.085Z,53.31
2018-04-23T12:17:49.100Z,53.41
2018-04-23T12:18:49.097Z,53.89
2018-04-23T12:19:49.103Z,53.21
2018-04-23T12:20:49.109Z,52.92
2018-04-23T12:21:49.262Z,53.59
2018-04-23T12:22:49.121Z,52.44
2018-04-23T12:23:49.126Z,52.53
2018-04-23T12:24:49.133Z,52.92
2018-04-23T12:25:49.139Z,53.67
2018-04-23T12:26:49.146Z,53.38
2018-04-23T12:27:49.153Z,53.67
2018-04-23T12:28:49.158Z,54.05
2018-04-23T12:29:49.164Z,53.67
2018-04-23T12:30:49.170Z,53.96
2018-04-23T12:31:49.179Z,54.53
2018-04-23T12:32:49.183Z,54.35
2018-04-23T12:33:49.187Z,54.35
2018-04-23T12:34:50.264Z,55.21
2018-04-23T12:35:49.618Z,54.80
2018-04-23T12:36:49.224Z,55.19
2018-04-23T12:37:49.214Z,55.87
2018-04-23T12:38:49.219Z,55.77
2018-04-23T12:39:49.230Z,56.15
2018-04-23T12:40:49.230Z,56.22
2018-04-23T12:41:49.239Z,56.41
2018-04-23T12:42:49.249Z,56.13
2018-04-23T12:43:49.282Z,56.13
2018-04-23T12:44:49.257Z,56.15
2018-04-23T12:45:49.322Z,56.25
2018-04-23T12:46:50.730Z,56.15
2018-04-23T12:47:49.489Z,56.15
2018-04-23T12:48:49.289Z,56.35
2018-04-23T12:49:50.075Z,56.54
2018-04-23T12:50:49.287Z,56.35
2018-04-23T12:51:49.294Z,56.35
2018-04-23T12:52:49.300Z,56.05